Slalom Rťgional en cŰte de la Vallťe Heureuse
Coupe de France des Slaloms 2013
1 23 FOUQUER Nicolas Fiat 126 FS 3 1:11,046
2 58 PERRIN Pierre Alexandre Peugeot 206 Gt F2 3 1:13,444 +00:02,398 +00:02,398
3 63 WAGUET Guillaume Peugeot 306 S16 F2 3 1:13,613 +00:02,567 +00:00,169
4 18 ANDRIEUX Vincent Prm FunBoost GT CM CM 1:13,644 +00:02,598 +00:00,031
5 59 OUDIN Patrice Opel Astra Gsi F2 3 1:15,199 +00:04,153 +00:01,555
6 38 MOUQUET Benoit Renault Clio Rs N 3 1:15,507 +00:04,461 +00:00,308
7 1 DUCROCQ Philippe Dallara 393 DE 3 1:16,352 +00:05,306 +00:00,845
8 85 CARDON Reginald Talbot Samba Rallye F2 1 1:16,521 +00:05,475 +00:00,169
9 27 LYOEN Julien Renault Clio Williams FA 3 1:16,532 +00:05,486 +00:00,011
10 41 HERMANT Guillaume CitroŽn Saxo VTS N 2 1:16,695 +00:05,649 +00:00,163
11 24 VERMERSCH Arnaud Simca 1000 FS 1 1:16,959 +00:05,913 +00:00,264
12 56 RAMBUR Michael Peugeot 309 Gti 16 F2 3 1:17,232 +00:06,186 +00:00,273
13 79 MAHIEUX Jean Francois Peugeot 106 s16 F2 2 1:18,024 +00:06,978 +00:00,792
14 65 CARON Thomas Renault 5 GT Turbo F2 3 1:18,041 +00:06,995 +00:00,017
15 14 HANQUIER Frederic Arc Mf5 CNF 1 1:18,572 +00:07,526 +00:00,531
16 89 SENECAT Jean Louis Talbot Samba Rallye F2 1 1:19,111 +00:08,065 +00:00,539
17 7 DUSSART Stephane Martini Mk 36 DE 1 1:19,381 +00:08,335 +00:00,270
18 256 VIGNERON Anthony Peugeot 309 Gti 16s F2 3 1:19,613 +00:08,567 +00:00,232
19 26 SCELLIER Guillaume Renault Clio 16s FA 3 1:19,925 +00:08,879 +00:00,312
20 95 CABOCHE Herve Renault Clio Rs L 2 1:20,219 +00:09,173 +00:00,294
21 55 BARON Bastien Volkswagen Golf F2 3 1:20,253 +00:09,207 +00:00,034
22 30 LANGELEZ Jean Francois CitroŽn C2 Challenge A 2 1:20,283 +00:09,237 +00:00,030
23 87 COUSIN David Peugeot 205 Rallye F2 1 1:20,489 +00:09,443 +00:00,206
24 96 ARNOUX Adrien Renault Megane Coupe L 2 1:20,678 +00:09,632 +00:00,189
25 223 MARIDOR Karine Fiat 126 FS 3 1:20,799 +00:09,753 +00:00,121
26 47 LYOEN Valentin Peugeot 205 Rallye FN 1 1:21,379 +00:10,333 +00:00,580
27 5 LASSALLE Philippe Martini Mk 33 DE 2 1:21,595 +00:10,549 +00:00,216
28 48 JACOBUS Antoine CitroŽn Ax Sport FN 1 1:21,660 +00:10,614 +00:00,065
29 57 RAMBUR Arnaud Peugeot 205 Gti 1.9 F2 3 1:21,795 +00:10,749 +00:00,135
30 78 HERANT Thibault CitroŽn Saxo Vts F2 2 1:21,853 +00:10,807 +00:00,058
31 263 PIQUET Aurelien Peugeot 306 S16 F2 3 1:22,083 +00:11,037 +00:00,230
32 67 HAUTEFEUILLE Bruno Volkswagen Golf gti F2 3 1:22,348 +00:11,302 +00:00,265
33 39 DUQUENOY Ludovic Peugeot 206 Rc N 3 1:22,375 +00:11,329 +00:00,027
34 4 HAMEL Dominique Martini Mk 15 DE 2 1:22,508 +00:11,462 +00:00,133
35 22 BOUHIN Jean Marie Alpine A110 FC 2 1:22,780 +00:11,734 +00:00,272
36 40 GILBERT Jean Michel Renault Clio Rs FA 3 1:23,190 +00:12,144 +00:00,410
37 19 LALOUETTE JoŽl Norma M20 CM CM 1:23,234 +00:12,188 +00:00,044
38 98 CABOCHE Matthieu Renault Clio 16S L 2 1:23,307 +00:12,261 +00:00,073
39 239 DUQUENOY Jerome Peugeot 206 rc N 3 1:23,319 +00:12,273 +00:00,012
40 74 MINET Stephane CitroŽn Saxo vts F2 2 1:23,330 +00:12,284 +00:00,011
41 25 LECAILLE Eric Simca 1000 Rallye 2 FS 2 1:23,433 +00:12,387 +00:00,103
42 296 DEBREU Guillaume Renault Megane L 2 1:23,538 +00:12,492 +00:00,105
43 46 MERLIER Franck Peugeot 205 Rallye FN 1 1:23,580 +00:12,534 +00:00,042
44 289 SENECAT Maxime Talbot Samba Rallye F2 1 1:23,638 +00:12,592 +00:00,058
45 33 LAVIGNE Jimmy Renault Super5 gt turbo FN 4 1:23,698 +00:12,652 +00:00,060
46 15 LION Elvis Proto DRA CNF 1 1:23,754 +00:12,708 +00:00,056
47 91 TONNEAU Jeremy Renault 19 16s L 2 1:23,861 +00:12,815 +00:00,107
48 80 LOUCHEZ Rťmy Peugeot 106 Rallye F2 2 1:24,066 +00:13,020 +00:00,205
49 84 PIOCHEL David Peugeot 205 Rallye F2 1 1:24,125 +00:13,079 +00:00,059
50 75 DANTIN Severine Peugeot 205 gti F2 2 1:24,273 +00:13,227 +00:00,148
51 227 LEMAN Michel Renault Clio 16 s FN 3 1:24,407 +00:13,361 +00:00,134
52 60 SERRET Michel Renault 5 Gt Turbo F2 3 1:24,530 +00:13,484 +00:00,123
53 246 LASSER Yannick Peugeot 205 Rallye FN 1 1:24,708 +00:13,662 +00:00,178
54 45 PRINGARBE Benoit Peugeot 205 Rallye FN 1 1:24,800 +00:13,754 +00:00,092
55 83 DEWULF Simon Peugeot 205 rallye F2 1 1:24,988 +00:13,942 +00:00,188
56 261 CAUCHETEUX Philippe Peugeot 306 F2 3 1:25,003 +00:13,957 +00:00,015
57 61 MARTEL Nicolas Peugeot 306 S16 F2 3 1:25,158 +00:14,112 +00:00,155
58 62 DELATTRE Francois Renault Clio Williams F2 3 1:25,394 +00:14,348 +00:00,236
59 105 BAUDHUIN Freddy Peugeot 206 L 2 1:25,445 +00:14,399 +00:00,051
60 10 GUEZET Roger Renault Evo RG03 CNF 2 1:25,961 +00:14,915 +00:00,516
61 81 PETITPAS Antoine Peugeot 205 F2 1 1:26,054 +00:15,008 +00:00,093
62 103 DESCARPENTRIES Luc Renault Clio rs L 2 1:26,072 +00:15,026 +00:00,018
63 11 LECHERTIER Vincent Serem V847 CNF 2 1:26,269 +00:15,223 +00:00,197
64 92 TREIZEBRE Bruno Renault Clio 16s L 2 1:26,285 +00:15,239 +00:00,016
65 100 HERANT Olivier Renault Clio 16S L 2 1:26,434 +00:15,388 +00:00,149
66 248 JACOBUS Maxime CitroŽn Ax Gt FN 1 1:26,548 +00:15,502 +00:00,114
67 102 FINDINIER Nicolas CitroŽn Ax gti L 1 1:26,788 +00:15,742 +00:00,240
68 42 CREPIN Aurelie CitroŽn Saxo Vts N 2 1:26,813 +00:15,767 +00:00,025
69 28 VARLET Anthony Renault Clio Rs A 3 1:27,089 +00:16,043 +00:00,276
70 283 DAUSSY Charlie Peugeot 205 rallye F2 1 1:27,336 +00:16,290 +00:00,247
71 86 WACH John Peugeot 106 Xsi F2 1 1:27,667 +00:16,621 +00:00,331
72 278 HERANT Ludovic CitroŽn Saxo Vts F2 2 1:27,735 +00:16,689 +00:00,068
73 34 FAYEULLE Frťdťric Subaru Impreza Gt FN 4 1:27,892 +00:16,846 +00:00,157
74 66 SOL Romain Renault 5 gt turbo F2 2 1:28,683 +00:17,637 +00:00,791
75 97 GUERLAIN Sebastien Renault Clio 16s L 2 1:28,800 +00:17,754 +00:00,117
76 76 COLIN Tony Peugeot 205 Gti 1.6 F2 2 1:29,462 +00:18,416 +00:00,662
77 82 COTTIN Johnny Peugeot 205 rallye F2 1 1:29,563 +00:18,517 +00:00,101
78 245 SZCYGIEL Bruno Peugeot 205 rallye FN 1 1:29,573 +00:18,527 +00:00,010
79 93 GAVOIS Dominique Volkswagen Golf gti3 L 2 1:30,412 +00:19,366 +00:00,839
80 88 DUHAMEL Rťmy Peugeot 205 Rallye F2 1 1:30,545 +00:19,499 +00:00,133
81 99 VAQUETTE Claude CitroŽn Saxo Vts L 2 1:30,691 +00:19,645 +00:00,146
82 276 COLIN Eddy Peugeot 205 Gti 1.6 F2 2 1:30,737 +00:19,691 +00:00,046
83 288 PRUDHOMME Christophe Peugeot 205 Rallye F2 1 1:30,793 +00:19,747 +00:00,056
84 101 MARECHAL Laurent Talbot Samba GLS L 1 1:30,912 +00:19,866 +00:00,119
85 224 CORDONNIER Antoine Simca 1000 FS 1 1:31,834 +00:20,788 +00:00,922
86 64 MONVOISON Jonathan Peugeot 205 Gti 1.9 F2 3 1:32,275 +00:21,229 +00:00,441
87 234 LEBEGUE JťrŰme Subaru Impreza Gt FN 4 1:33,325 +00:22,279 +00:01,050
88 90 DANTIN Bernard Peugeot 205 Rallye F2 1 1:33,649 +00:22,603 +00:00,324
89 226 SCELLIER Laurent Renault clio 16s FA 3 1:34,248 +00:23,202 +00:00,599
90 258 ANDRIEUX Helene Peugeot 206 F2 3 1:36,201 +00:25,155 +00:01,953
91 299 MARMIN Laurent CitroŽn Saxo Vts L 2 1:37,403 +00:26,357 +00:01,202
92 94 BOUCHENNA Matthieu Volkswagen Golf gti 3 L 2 1:37,843 +00:26,797 +00:00,440
93 286 WACH Jennifer Peugeot 10- Xsi F2 1 1:40,206 +00:29,160 +00:02,363
94 282 MIONNET Amaury Peugeot 205 rallye F2 1 3:32,270 +02:21,224 +01:52,064
Clt Equipage Voiture Gr/Cl Temps Ecart 1er Ecart préc. Catégories
Commentaires: © PatricK Soft  
(Temps forfaitaires=couleur bleue)
Classés:94

Epreuve: Groupe: Catégorie:

 
Retour
Classement final provisoire